Time;durP1;ratioP1;P1;durP2;ratioP2;P2;SDS_P1;SDS_P2;PMS_P1;PMS_P2;Temp;Humidity;BMP_temperature;BMP_pressure;BME280_temperature;BME280_humidity;BME280_pressure;Samples;Min_cycle;Max_cycle;Signal;HPM_P1;HPM_P2
2023/01/16 00:00:45;;;;;;;7.30;0.77;;;;;;;;;;5047755;28;20052;-69
2023/01/16 00:03:10;;;;;;;5.30;1.03;;;;;;;;;;5046050;28;20785;-69
2023/01/16 00:05:36;;;;;;;1.10;0.40;;;;;;;;;;5047310;28;20309;-69
2023/01/16 00:08:01;;;;;;;1.93;0.80;;;;;;;;;;5037694;28;20755;-69
2023/01/16 00:10:26;;;;;;;7.57;1.10;;;;;;;;;;5044324;28;20311;-69
2023/01/16 00:12:51;;;;;;;7.78;0.85;;;;;;;;;;5035369;28;20056;-69
2023/01/16 00:15:16;;;;;;;5.18;1.00;;;;;;;;;;5047128;28;20063;-69
2023/01/16 00:17:42;;;;;;;10.60;0.82;;;;;;;;;;5051244;28;20358;-67
2023/01/16 00:20:07;;;;;;;5.20;0.82;;;;;;;;;;5045083;28;20375;-67
2023/01/16 00:22:32;;;;;;;1.45;1.25;;;;;;;;;;5044790;28;20025;-68
2023/01/16 00:24:58;;;;;;;1.30;0.30;;;;;;;;;;5050368;28;20386;-69
2023/01/16 00:27:23;;;;;;;8.82;1.20;;;;;;;;;;5049238;28;20324;-68
2023/01/16 00:29:48;;;;;;;1.25;0.63;;;;;;;;;;5052978;28;20023;-69
2023/01/16 00:32:15;;;;;;;2.30;0.43;;;;;;;;;;5049117;28;20083;-67
2023/01/16 00:34:40;;;;;;;1.20;0.50;;;;;;;;;;5049644;28;20023;-69
2023/01/16 00:37:05;;;;;;;4.88;0.60;;;;;;;;;;5050419;28;20013;-69
2023/01/16 00:39:30;;;;;;;4.60;0.60;;;;;;;;;;5052006;28;20017;-69
2023/01/16 00:41:55;;;;;;;5.65;1.13;;;;;;;;;;5032257;28;20302;-67
2023/01/16 00:44:21;;;;;;;0.47;0.30;;;;;;;;;;5049693;28;20009;-67
2023/01/16 00:46:46;;;;;;;2.72;0.55;;;;;;;;;;5049290;28;20100;-67
2023/01/16 00:49:11;;;;;;;1.90;0.73;;;;;;;;;;5044438;28;20048;-69
2023/01/16 00:51:36;;;;;;;4.43;0.77;;;;;;;;;;5049074;28;20620;-68
2023/01/16 00:54:02;;;;;;;2.33;0.47;;;;;;;;;;5047325;28;20290;-68
2023/01/16 00:56:27;;;;;;;1.50;0.50;;;;;;;;;;5048890;28;20378;-68
2023/01/16 00:58:52;;;;;;;2.15;0.73;;;;;;;;;;5046991;28;20045;-67
2023/01/16 01:01:17;;;;;;;2.67;0.30;;;;;;;;;;5050588;28;20029;-68
2023/01/16 01:03:42;;;;;;;5.70;1.00;;;;;;;;;;5050856;28;20735;-68
2023/01/16 01:06:08;;;;;;;5.90;1.10;;;;;;;;;;5045863;28;20036;-68
2023/01/16 01:08:34;;;;;;;4.40;0.63;;;;;;;;;;5050580;28;20272;-69
2023/01/16 01:11:05;;;;;;;1.30;0.43;;;;;;;;;;5046680;28;20028;-69
2023/01/16 01:13:30;;;;;;;0.88;0.38;;;;;;;;;;5050613;28;20094;-69
2023/01/16 01:15:56;;;;;;;3.40;0.20;;;;;;;;;;5045972;28;20123;-69
2023/01/16 01:18:21;;;;;;;2.03;0.32;;;;;;;;;;5049846;28;20286;-68
2023/01/16 01:20:46;;;;;;;5.37;0.40;;;;;;;;;;5048841;28;20392;-68
2023/01/16 01:23:11;;;;;;;0.57;0.40;;;;;;;;;;5051387;28;20274;-68
2023/01/16 01:25:37;;;;;;;0.20;0.20;;;;;;;;;;5028808;23;20308;-68
2023/01/16 01:28:02;;;;;;;1.73;0.70;;;;;;;;;;5018330;28;20268;-68
2023/01/16 01:30:27;;;;;;;0.45;0.25;;;;;;;;;;5018844;28;20022;-68
2023/01/16 01:32:53;;;;;;;0.75;0.35;;;;;;;;;;5014920;28;20577;-68
2023/01/16 01:35:19;;;;;;;5.73;0.70;;;;;;;;;;5024292;28;20036;-67
2023/01/16 01:37:44;;;;;;;1.80;0.52;;;;;;;;;;5027790;28;20934;-68
2023/01/16 01:40:10;;;;;;;0.40;0.30;;;;;;;;;;5031568;28;20092;-68
2023/01/16 01:42:46;;;;;;;0.73;0.40;;;;;;;;;;5030859;28;20276;-68
2023/01/16 01:45:12;;;;;;;2.70;0.25;;;;;;;;;;5026560;28;20029;-67
2023/01/16 01:47:38;;;;;;;2.00;0.60;;;;;;;;;;5028594;28;20091;-68
2023/01/16 01:50:12;;;;;;;0.85;0.43;;;;;;;;;;5023418;28;20044;-68
2023/01/16 01:52:37;;;;;;;4.05;0.35;;;;;;;;;;5028881;28;20025;-68
2023/01/16 01:55:04;;;;;;;4.95;0.55;;;;;;;;;;5028375;28;20367;-68
2023/01/16 01:57:34;;;;;;;12.00;0.50;;;;;;;;;;5022333;28;20014;-68
2023/01/16 02:00:19;;;;;;;1.00;0.50;;;;;;;;;;5024309;28;20025;-67
2023/01/16 02:02:46;;;;;;;5.30;1.45;;;;;;;;;;5027983;28;20026;-67
2023/01/16 02:05:12;;;;;;;0.80;0.28;;;;;;;;;;5028481;28;20185;-68
2023/01/16 02:07:38;;;;;;;0.73;0.30;;;;;;;;;;5020127;28;20471;-68
2023/01/16 02:10:27;;;;;;;0.60;0.30;;;;;;;;;;5031978;28;20079;-69
2023/01/16 02:12:53;;;;;;;3.10;0.90;;;;;;;;;;5025064;28;20030;-68
2023/01/16 02:15:19;;;;;;;2.65;0.43;;;;;;;;;;5024748;28;20105;-68
2023/01/16 02:20:29;;;;;;;2.65;0.45;;;;;;;;;;5025154;28;20024;-68
2023/01/16 02:23:13;;;;;;;1.33;0.32;;;;;;;;;;5026199;28;20017;-69
2023/01/16 02:25:52;;;;;;;0.60;0.32;;;;;;;;;;5021059;28;20093;-67
2023/01/16 02:28:18;;;;;;;3.25;0.52;;;;;;;;;;5032786;28;20036;-67
2023/01/16 02:30:52;;;;;;;0.73;0.10;;;;;;;;;;5028026;28;20025;-67
2023/01/16 02:33:23;;;;;;;0.80;0.40;;;;;;;;;;5028304;28;20269;-68
2023/01/16 02:35:58;;;;;;;1.58;0.40;;;;;;;;;;5027618;28;20115;-69
2023/01/16 02:38:41;;;;;;;4.72;0.47;;;;;;;;;;5027981;28;20149;-69
2023/01/16 02:41:13;;;;;;;1.55;0.32;;;;;;;;;;5025695;28;20017;-67
2023/01/16 02:43:44;;;;;;;3.67;0.25;;;;;;;;;;5024535;28;20025;-68
2023/01/16 02:46:19;;;;;;;0.75;0.30;;;;;;;;;;5023608;28;20390;-68
2023/01/16 02:48:48;;;;;;;0.10;0.10;;;;;;;;;;5024647;28;20537;-67
2023/01/16 02:51:16;;;;;;;0.20;0.20;;;;;;;;;;5027396;28;20576;-68
2023/01/16 02:53:44;;;;;;;2.67;0.47;;;;;;;;;;5024008;28;20033;-69
2023/01/16 02:56:13;;;;;;;1.10;0.35;;;;;;;;;;5021673;28;20079;-69
2023/01/16 02:58:46;;;;;;;1.73;0.70;;;;;;;;;;5019604;28;20018;-67
2023/01/16 03:01:11;;;;;;;2.38;0.57;;;;;;;;;;5031006;28;20381;-69
2023/01/16 03:03:37;;;;;;;1.25;0.28;;;;;;;;;;5026057;28;20033;-69
2023/01/16 03:06:06;;;;;;;2.23;0.20;;;;;;;;;;5024611;28;20025;-68
2023/01/16 03:09:00;;;;;;;2.67;0.40;;;;;;;;;;5021787;28;20273;-68
2023/01/16 03:11:27;;;;;;;0.08;0.08;;;;;;;;;;5008983;28;20041;-69
2023/01/16 03:13:55;;;;;;;0.93;0.22;;;;;;;;;;5025151;28;20026;-68
2023/01/16 03:16:39;;;;;;;0.88;0.28;;;;;;;;;;5029037;28;20384;-68
2023/01/16 03:19:13;;;;;;;4.68;0.85;;;;;;;;;;5027439;28;20028;-69
2023/01/16 03:21:55;;;;;;;1.27;0.28;;;;;;;;;;5024650;28;20102;-68
2023/01/16 03:24:24;;;;;;;1.00;0.30;;;;;;;;;;5025919;28;20018;-68
2023/01/16 03:26:51;;;;;;;1.92;0.38;;;;;;;;;;5020519;28;20021;-68
2023/01/16 03:29:35;;;;;;;5.25;0.47;;;;;;;;;;5024855;28;20094;-68
2023/01/16 03:32:09;;;;;;;1.17;0.30;;;;;;;;;;5028311;28;20036;-68
2023/01/16 03:34:34;;;;;;;4.28;0.63;;;;;;;;;;5026314;28;20029;-68
2023/01/16 03:37:22;;;;;;;3.93;0.60;;;;;;;;;;5026024;28;20028;-68
2023/01/16 03:39:51;;;;;;;1.63;0.40;;;;;;;;;;5017133;28;20780;-69
2023/01/16 03:42:23;;;;;;;1.23;0.30;;;;;;;;;;5027799;28;20021;-68
2023/01/16 03:44:52;;;;;;;0.90;0.30;;;;;;;;;;5026007;28;20540;-68
2023/01/16 03:47:24;;;;;;;5.13;0.52;;;;;;;;;;5026948;28;20022;-67
2023/01/16 03:49:52;;;;;;;0.32;0.22;;;;;;;;;;5004963;28;20080;-67
2023/01/16 03:52:19;;;;;;;1.33;0.30;;;;;;;;;;5025226;28;20025;-68
2023/01/16 03:54:55;;;;;;;5.53;1.20;;;;;;;;;;5022022;28;20029;-68
2023/01/16 03:57:27;;;;;;;3.75;0.85;;;;;;;;;;5022743;28;20028;-68
2023/01/16 03:59:53;;;;;;;1.77;0.40;;;;;;;;;;5023290;28;20032;-67
2023/01/16 04:02:31;;;;;;;4.45;0.70;;;;;;;;;;5032103;28;20105;-67
2023/01/16 04:05:01;;;;;;;0.40;0.40;;;;;;;;;;5020917;28;20136;-68
2023/01/16 04:07:46;;;;;;;2.78;0.50;;;;;;;;;;5024929;28;20041;-67
2023/01/16 04:10:17;;;;;;;1.83;0.65;;;;;;;;;;5004278;28;20026;-70
2023/01/16 04:12:45;;;;;;;2.40;0.65;;;;;;;;;;5027338;28;20425;-68
2023/01/16 04:15:10;;;;;;;1.17;0.63;;;;;;;;;;5027783;28;20079;-68
2023/01/16 04:17:36;;;;;;;4.38;0.77;;;;;;;;;;5022580;28;20417;-68
2023/01/16 04:20:02;;;;;;;3.28;0.40;;;;;;;;;;5027796;28;20433;-68
2023/01/16 04:22:28;;;;;;;1.92;0.43;;;;;;;;;;5026686;28;20105;-69
2023/01/16 04:24:55;;;;;;;7.57;0.65;;;;;;;;;;5026428;28;20028;-69
2023/01/16 04:27:21;;;;;;;2.95;0.70;;;;;;;;;;5023351;28;20432;-68
2023/01/16 04:29:46;;;;;;;0.20;0.20;;;;;;;;;;5026938;28;20021;-68
2023/01/16 04:32:11;;;;;;;0.65;0.30;;;;;;;;;;5028020;28;20389;-68
2023/01/16 04:34:36;;;;;;;1.02;0.38;;;;;;;;;;5026780;28;20024;-68
2023/01/16 04:37:02;;;;;;;4.80;0.60;;;;;;;;;;5026461;28;20022;-68
2023/01/16 04:39:27;;;;;;;6.90;0.70;;;;;;;;;;5029183;28;20096;-67
2023/01/16 04:41:52;;;;;;;2.38;0.82;;;;;;;;;;5028206;28;20028;-68
2023/01/16 04:44:17;;;;;;;1.08;0.43;;;;;;;;;;5028866;28;20490;-67
2023/01/16 04:46:42;;;;;;;0.67;0.20;;;;;;;;;;5025911;28;20929;-67
2023/01/16 04:49:08;;;;;;;4.45;1.08;;;;;;;;;;5028637;28;20304;-68
2023/01/16 04:51:33;;;;;;;4.88;0.75;;;;;;;;;;5025562;28;20029;-68
2023/01/16 04:53:58;;;;;;;13.35;0.75;;;;;;;;;;5028082;28;20029;-68
2023/01/16 04:56:24;;;;;;;1.48;0.45;;;;;;;;;;5026809;28;21818;-68
2023/01/16 04:58:50;;;;;;;1.33;0.43;;;;;;;;;;5008194;28;20079;-69
2023/01/16 05:01:16;;;;;;;9.48;1.15;;;;;;;;;;5027333;28;20768;-69
2023/01/16 05:03:41;;;;;;;0.45;0.25;;;;;;;;;;5027159;28;20029;-67
2023/01/16 05:06:07;;;;;;;0.83;0.40;;;;;;;;;;5029099;28;20072;-68
2023/01/16 05:08:32;;;;;;;2.85;0.45;;;;;;;;;;5027366;28;20817;-68
2023/01/16 05:11:00;;;;;;;2.37;0.57;;;;;;;;;;5030886;28;20030;-67
2023/01/16 05:13:26;;;;;;;2.05;0.50;;;;;;;;;;5032741;28;20656;-68
2023/01/16 05:15:51;;;;;;;2.97;1.00;;;;;;;;;;5025599;28;20018;-68
2023/01/16 05:18:16;;;;;;;3.07;0.53;;;;;;;;;;5027459;28;20087;-68
2023/01/16 05:20:42;;;;;;;3.03;0.83;;;;;;;;;;5027959;28;20273;-69
2023/01/16 05:23:10;;;;;;;1.63;0.32;;;;;;;;;;5033123;28;20317;-68
2023/01/16 05:25:35;;;;;;;3.63;1.15;;;;;;;;;;5025512;28;20071;-69
2023/01/16 05:28:00;;;;;;;4.10;0.30;;;;;;;;;;5012864;28;20029;-68
2023/01/16 05:30:26;;;;;;;6.05;0.63;;;;;;;;;;5031370;28;20055;-68
2023/01/16 05:32:51;;;;;;;3.58;1.02;;;;;;;;;;5030420;28;20048;-68
2023/01/16 05:35:16;;;;;;;6.17;0.73;;;;;;;;;;5025997;28;20036;-69
2023/01/16 05:37:42;;;;;;;3.88;0.70;;;;;;;;;;5027397;28;20625;-69
2023/01/16 05:40:07;;;;;;;6.65;0.90;;;;;;;;;;5034725;28;20033;-68
2023/01/16 05:42:33;;;;;;;2.30;0.60;;;;;;;;;;5030755;28;20025;-68
2023/01/16 05:44:58;;;;;;;5.30;0.80;;;;;;;;;;5030194;28;20172;-68
2023/01/16 05:47:23;;;;;;;2.35;0.63;;;;;;;;;;5028476;28;20280;-68
2023/01/16 05:49:48;;;;;;;1.13;0.50;;;;;;;;;;5030738;28;20022;-68
2023/01/16 05:52:14;;;;;;;0.57;0.30;;;;;;;;;;5028950;28;20278;-68
2023/01/16 05:54:39;;;;;;;0.80;0.45;;;;;;;;;;5026649;28;20018;-69
2023/01/16 05:57:04;;;;;;;4.30;0.55;;;;;;;;;;5026828;28;20028;-68
2023/01/16 05:59:29;;;;;;;7.00;0.65;;;;;;;;;;5022143;28;20486;-68
2023/01/16 06:01:56;;;;;;;0.88;0.22;;;;;;;;;;5026306;28;20104;-68
2023/01/16 06:04:22;;;;;;;2.03;0.52;;;;;;;;;;5023876;28;20022;-68
2023/01/16 06:06:47;;;;;;;7.82;0.63;;;;;;;;;;5018216;28;20917;-68
2023/01/16 06:09:12;;;;;;;2.67;0.55;;;;;;;;;;5025831;28;20025;-68
2023/01/16 06:11:37;;;;;;;1.80;0.60;;;;;;;;;;5020600;28;20029;-68
2023/01/16 06:14:04;;;;;;;1.33;0.38;;;;;;;;;;5026715;28;20330;-68
2023/01/16 06:16:29;;;;;;;0.20;0.20;;;;;;;;;;5024124;28;20013;-68
2023/01/16 06:18:55;;;;;;;1.75;0.50;;;;;;;;;;5023144;28;20024;-69
2023/01/16 06:21:20;;;;;;;1.40;0.30;;;;;;;;;;5024833;28;20486;-68
2023/01/16 06:23:45;;;;;;;1.60;0.50;;;;;;;;;;5025197;28;20287;-69
2023/01/16 06:26:10;;;;;;;2.40;0.47;;;;;;;;;;5024225;28;20051;-68
2023/01/16 06:28:36;;;;;;;3.97;0.40;;;;;;;;;;5023502;28;20353;-69
2023/01/16 06:31:01;;;;;;;1.38;0.47;;;;;;;;;;5024539;28;20095;-68
2023/01/16 06:33:26;;;;;;;0.65;0.17;;;;;;;;;;5024528;28;20025;-67
2023/01/16 06:35:52;;;;;;;1.08;0.40;;;;;;;;;;5020835;28;20048;-68
2023/01/16 06:38:17;;;;;;;2.92;0.40;;;;;;;;;;5023832;28;20393;-69
2023/01/16 06:40:44;;;;;;;1.13;0.40;;;;;;;;;;5023685;28;20470;-69
2023/01/16 06:43:09;;;;;;;1.85;0.55;;;;;;;;;;5027282;28;20021;-68
2023/01/16 06:45:34;;;;;;;2.47;0.60;;;;;;;;;;5023931;28;20025;-68
2023/01/16 06:47:59;;;;;;;6.47;1.27;;;;;;;;;;5019769;28;20384;-68
2023/01/16 06:50:25;;;;;;;6.28;0.98;;;;;;;;;;5022553;28;20272;-69
2023/01/16 06:52:50;;;;;;;1.15;0.57;;;;;;;;;;5023263;28;20033;-68
2023/01/16 06:55:15;;;;;;;4.10;0.70;;;;;;;;;;5025156;28;20104;-69
2023/01/16 06:57:40;;;;;;;0.50;0.32;;;;;;;;;;5020826;28;20079;-67
2023/01/16 07:00:06;;;;;;;11.50;1.33;;;;;;;;;;5020332;28;20060;-69
2023/01/16 07:02:31;;;;;;;3.38;0.80;;;;;;;;;;5024058;28;20040;-68
2023/01/16 07:04:57;;;;;;;2.15;0.90;;;;;;;;;;5023506;28;20057;-67
2023/01/16 07:07:22;;;;;;;9.87;0.60;;;;;;;;;;5021644;28;20081;-68
2023/01/16 07:09:47;;;;;;;2.17;0.80;;;;;;;;;;5021745;28;20276;-69
2023/01/16 07:12:12;;;;;;;1.85;0.82;;;;;;;;;;5022776;28;20300;-68
2023/01/16 07:22:49;;;;;;;3.67;1.25;;;;;;;;;;5023749;28;20127;-69
2023/01/16 07:25:24;;;;;;;7.00;0.73;;;;;;;;;;5024372;28;20489;-67
2023/01/16 07:27:50;;;;;;;3.50;0.70;;;;;;;;;;5022043;28;20092;-68
2023/01/16 07:30:19;;;;;;;3.35;0.90;;;;;;;;;;5022210;28;20162;-68
2023/01/16 07:32:45;;;;;;;7.45;0.80;;;;;;;;;;5023559;28;20096;-69
2023/01/16 07:35:10;;;;;;;3.55;0.95;;;;;;;;;;5005132;28;20167;-68
2023/01/16 07:37:35;;;;;;;4.70;1.08;;;;;;;;;;5020422;28;20097;-67
2023/01/16 07:40:00;;;;;;;2.08;0.85;;;;;;;;;;5019161;28;20282;-68
2023/01/16 07:42:25;;;;;;;3.00;1.25;;;;;;;;;;5024306;28;20028;-68
2023/01/16 07:44:51;;;;;;;4.05;1.20;;;;;;;;;;5023703;28;20023;-68
2023/01/16 07:47:16;;;;;;;8.03;1.97;;;;;;;;;;5019292;28;20037;-68
2023/01/16 07:49:41;;;;;;;3.75;0.60;;;;;;;;;;5019444;28;20311;-67
2023/01/16 07:52:06;;;;;;;11.93;0.98;;;;;;;;;;5027882;28;20426;-68
2023/01/16 07:54:35;;;;;;;1.33;0.60;;;;;;;;;;5024337;28;20032;-68
2023/01/16 07:57:00;;;;;;;3.65;1.27;;;;;;;;;;5013784;28;20316;-68
2023/01/16 07:59:25;;;;;;;4.72;1.17;;;;;;;;;;5016312;28;20053;-67
2023/01/16 08:01:50;;;;;;;5.23;1.20;;;;;;;;;;5012978;28;20414;-67
2023/01/16 08:04:16;;;;;;;2.57;0.73;;;;;;;;;;5016450;28;20276;-67
2023/01/16 08:06:44;;;;;;;2.70;0.93;;;;;;;;;;5012549;28;20435;-69
2023/01/16 08:09:10;;;;;;;7.57;0.75;;;;;;;;;;5013346;28;20425;-67
2023/01/16 08:11:35;;;;;;;8.20;1.25;;;;;;;;;;5017921;28;20021;-68
2023/01/16 08:14:00;;;;;;;0.53;0.30;;;;;;;;;;5022251;28;20060;-68
2023/01/16 08:16:25;;;;;;;5.40;1.15;;;;;;;;;;5019405;28;20769;-67
2023/01/16 08:18:50;;;;;;;10.48;1.15;;;;;;;;;;5010209;28;20997;-68
2023/01/16 08:21:16;;;;;;;2.73;0.83;;;;;;;;;;5014045;28;20036;-67
2023/01/16 08:23:42;;;;;;;6.35;1.15;;;;;;;;;;5012597;28;20264;-68
2023/01/16 08:26:07;;;;;;;3.75;1.20;;;;;;;;;;5011603;28;20557;-68
2023/01/16 08:28:32;;;;;;;3.15;1.00;;;;;;;;;;5008561;28;20633;-68
2023/01/16 08:31:03;;;;;;;7.13;1.90;;;;;;;;;;5009011;28;20037;-69
2023/01/16 08:33:29;;;;;;;4.88;1.30;;;;;;;;;;5011802;28;20287;-68
2023/01/16 08:35:56;;;;;;;3.67;1.30;;;;;;;;;;5012385;28;20115;-68
2023/01/16 08:38:21;;;;;;;2.30;0.80;;;;;;;;;;5013704;28;20284;-68
2023/01/16 08:40:46;;;;;;;3.33;1.27;;;;;;;;;;5017104;28;20013;-68
2023/01/16 08:51:24;;;;;;;6.28;0.40;;;;;;;;;;5020548;28;20048;-67
2023/01/16 08:53:50;;;;;;;5.82;1.33;;;;;;;;;;5016669;28;20037;-69
2023/01/16 08:56:16;;;;;;;4.72;0.60;;;;;;;;;;5014904;28;20101;-67
2023/01/16 08:58:41;;;;;;;8.03;1.03;;;;;;;;;;5028175;28;20037;-68
2023/01/16 09:01:06;;;;;;;1.17;0.28;;;;;;;;;;5027979;28;20696;-68
2023/01/16 09:03:33;;;;;;;4.45;0.57;;;;;;;;;;5020314;28;20079;-68
2023/01/16 09:05:58;;;;;;;3.83;0.70;;;;;;;;;;5011174;28;20026;-68
2023/01/16 09:08:24;;;;;;;3.28;0.68;;;;;;;;;;5015570;28;20025;-69
2023/01/16 09:13:51;;;;;;;8.48;1.40;;;;;;;;;;5015434;28;20067;-69
2023/01/16 09:16:18;;;;;;;1.17;0.40;;;;;;;;;;5015738;28;20029;-68
2023/01/16 09:18:43;;;;;;;2.10;0.63;;;;;;;;;;5011456;28;20049;-69
2023/01/16 09:21:08;;;;;;;4.63;0.85;;;;;;;;;;5016105;28;20029;-67
2023/01/16 09:23:33;;;;;;;1.80;0.55;;;;;;;;;;5019353;28;20026;-69
2023/01/16 09:25:58;;;;;;;2.10;0.80;;;;;;;;;;5027519;28;20033;-68
2023/01/16 09:28:23;;;;;;;7.67;0.67;;;;;;;;;;5011566;28;20037;-69
2023/01/16 09:30:50;;;;;;;6.93;0.67;;;;;;;;;;5013647;28;20275;-69
2023/01/16 09:33:15;;;;;;;3.25;0.68;;;;;;;;;;5014839;28;20272;-67
2023/01/16 09:35:41;;;;;;;4.30;1.30;;;;;;;;;;5017822;28;20508;-67
2023/01/16 09:38:06;;;;;;;0.80;0.57;;;;;;;;;;5015247;28;20272;-67
2023/01/16 09:40:31;;;;;;;2.53;0.55;;;;;;;;;;5016809;28;20104;-69
2023/01/16 09:45:48;;;;;;;1.60;0.60;;;;;;;;;;5026564;28;20648;-68
2023/01/16 09:48:23;;;;;;;5.38;0.93;;;;;;;;;;5019310;28;20017;-69
2023/01/16 09:50:52;;;;;;;3.97;0.75;;;;;;;;;;5011038;28;20026;-69
2023/01/16 09:58:59;;;;;;;8.38;1.17;;;;;;;;;;5030770;28;20448;-67
2023/01/16 10:01:33;;;;;;;3.35;0.70;;;;;;;;;;5028829;28;20597;-69
2023/01/16 10:04:16;;;;;;;1.75;0.60;;;;;;;;;;5011655;28;20030;-69
2023/01/16 10:06:48;;;;;;;1.85;0.40;;;;;;;;;;5011615;28;20072;-69
2023/01/16 10:09:17;;;;;;;1.52;0.80;;;;;;;;;;5017440;28;20036;-67
2023/01/16 10:11:53;;;;;;;3.67;1.58;;;;;;;;;;5017427;28;20017;-69
2023/01/16 10:14:18;;;;;;;8.40;1.20;;;;;;;;;;5013319;28;20048;-69
2023/01/16 10:16:50;;;;;;;1.75;0.95;;;;;;;;;;5018914;28;20022;-69
2023/01/16 10:19:18;;;;;;;0.82;0.45;;;;;;;;;;5014042;28;20711;-69
2023/01/16 10:22:01;;;;;;;3.10;0.77;;;;;;;;;;5012390;28;20017;-69
2023/01/16 10:24:36;;;;;;;1.42;0.47;;;;;;;;;;5013479;28;20025;-69
2023/01/16 10:27:18;;;;;;;3.72;0.82;;;;;;;;;;5012888;28;20038;-69
2023/01/16 10:29:55;;;;;;;2.05;0.40;;;;;;;;;;5013051;28;20029;-69
2023/01/16 10:32:28;;;;;;;0.30;0.28;;;;;;;;;;5012485;28;20666;-69
2023/01/16 10:34:56;;;;;;;1.27;0.45;;;;;;;;;;5016634;28;20025;-68
2023/01/16 10:37:22;;;;;;;1.88;0.73;;;;;;;;;;5013481;28;20025;-69
2023/01/16 10:39:49;;;;;;;1.25;0.30;;;;;;;;;;5010389;28;20548;-68
2023/01/16 10:50:32;;;;;;;2.40;0.75;;;;;;;;;;5010596;28;20755;-68
2023/01/16 10:52:57;;;;;;;0.93;0.32;;;;;;;;;;5013162;28;20021;-68
2023/01/16 10:55:22;;;;;;;1.25;0.50;;;;;;;;;;5011971;28;20021;-69
2023/01/16 10:57:50;;;;;;;1.55;0.65;;;;;;;;;;5010732;28;20033;-68
2023/01/16 11:00:35;;;;;;;3.40;0.80;;;;;;;;;;5023396;28;20029;-68
2023/01/16 11:03:08;;;;;;;2.70;0.40;;;;;;;;;;5011312;28;20482;-69
2023/01/16 11:05:34;;;;;;;0.40;0.20;;;;;;;;;;5010458;28;20041;-69
2023/01/16 11:08:09;;;;;;;1.17;0.50;;;;;;;;;;5015895;28;20033;-68
2023/01/16 11:10:35;;;;;;;1.75;0.43;;;;;;;;;;5020015;28;20033;-69
2023/01/16 11:18:51;;;;;;;0.50;0.38;;;;;;;;;;5016023;28;20060;-68
2023/01/16 11:21:16;;;;;;;0.63;0.30;;;;;;;;;;5029050;28;20025;-68
2023/01/16 11:23:43;;;;;;;1.08;0.28;;;;;;;;;;5022970;28;20025;-69
2023/01/16 11:26:09;;;;;;;4.22;0.50;;;;;;;;;;5008681;28;20061;-69
2023/01/16 11:28:34;;;;;;;1.00;0.60;;;;;;;;;;5022113;28;20060;-68
2023/01/16 11:31:01;;;;;;;2.17;0.80;;;;;;;;;;5026046;28;20109;-67
2023/01/16 11:33:28;;;;;;;2.00;0.85;;;;;;;;;;5012489;28;20646;-68
2023/01/16 11:35:53;;;;;;;0.45;0.30;;;;;;;;;;5013513;28;20029;-67
2023/01/16 11:38:19;;;;;;;2.92;0.68;;;;;;;;;;5010774;28;20059;-68
2023/01/16 11:40:45;;;;;;;0.63;0.38;;;;;;;;;;5011264;28;20563;-69
2023/01/16 11:46:07;;;;;;;0.25;0.20;;;;;;;;;;5009566;28;20032;-69
2023/01/16 11:48:39;;;;;;;1.85;0.30;;;;;;;;;;5007365;28;20393;-68
2023/01/16 11:51:06;;;;;;;0.20;0.20;;;;;;;;;;5024778;28;20053;-68
2023/01/16 11:53:32;;;;;;;0.95;0.47;;;;;;;;;;5027384;28;20025;-68
2023/01/16 11:56:00;;;;;;;2.38;0.65;;;;;;;;;;5020798;28;20076;-68
2023/01/16 11:58:25;;;;;;;2.20;0.52;;;;;;;;;;5006510;28;20026;-69
2023/01/16 12:00:57;;;;;;;0.50;0.30;;;;;;;;;;5011976;28;20022;-69
2023/01/16 12:03:31;;;;;;;1.55;0.40;;;;;;;;;;5010605;28;20326;-69
2023/01/16 12:06:01;;;;;;;1.80;0.60;;;;;;;;;;5008626;28;20470;-69
2023/01/16 12:08:45;;;;;;;2.78;0.40;;;;;;;;;;5008820;28;20026;-69
2023/01/16 12:11:12;;;;;;;1.40;0.68;;;;;;;;;;5008916;28;20044;-68
2023/01/16 12:16:40;;;;;;;1.63;0.90;;;;;;;;;;5010765;28;20121;-68
2023/01/16 12:19:14;;;;;;;4.47;0.50;;;;;;;;;;5013720;28;20531;-68
2023/01/16 12:21:39;;;;;;;0.98;0.60;;;;;;;;;;5016677;28;20067;-69
2023/01/16 12:24:09;;;;;;;1.63;0.57;;;;;;;;;;5030152;28;20014;-69
2023/01/16 12:27:01;;;;;;;2.97;0.63;;;;;;;;;;5027453;28;20296;-68
2023/01/16 12:29:35;;;;;;;0.43;0.25;;;;;;;;;;5023585;28;20029;-68
2023/01/16 12:32:03;;;;;;;1.10;0.68;;;;;;;;;;5030225;28;20470;-67
2023/01/16 12:34:36;;;;;;;1.17;0.60;;;;;;;;;;5030853;28;20068;-68
2023/01/16 12:37:09;;;;;;;4.47;0.57;;;;;;;;;;5026619;28;20024;-67
2023/01/16 12:39:42;;;;;;;0.45;0.32;;;;;;;;;;5018223;28;20036;-69
2023/01/16 12:45:37;;;;;;;1.08;0.55;;;;;;;;;;5013054;28;20040;-69
2023/01/16 12:48:20;;;;;;;1.20;0.50;;;;;;;;;;5025955;28;20116;-69
2023/01/16 12:50:51;;;;;;;2.20;0.77;;;;;;;;;;5024972;28;20021;-69
2023/01/16 12:53:16;;;;;;;1.58;0.50;;;;;;;;;;5026906;28;20053;-69
2023/01/16 12:55:41;;;;;;;3.92;0.50;;;;;;;;;;5028920;28;20099;-69
2023/01/16 12:58:12;;;;;;;0.68;0.38;;;;;;;;;;5031533;28;20268;-69
2023/01/16 13:00:45;;;;;;;0.75;0.35;;;;;;;;;;5025268;28;20347;-69
2023/01/16 13:03:33;;;;;;;4.13;0.63;;;;;;;;;;5020746;28;20048;-69
2023/01/16 13:05:58;;;;;;;1.40;0.40;;;;;;;;;;5016219;28;20026;-68
2023/01/16 13:08:26;;;;;;;2.10;0.50;;;;;;;;;;5014030;28;20482;-68
2023/01/16 13:13:47;;;;;;;0.88;0.22;;;;;;;;;;5014415;28;20103;-68
2023/01/16 13:16:13;;;;;;;;;;;;;;;;;;5016392;28;20040;-69
2023/01/16 13:18:40;;;;;;;1.02;0.45;;;;;;;;;;5015240;28;19921;-68
2023/01/16 13:21:08;;;;;;;0.93;0.30;;;;;;;;;;5006998;28;20022;-68
2023/01/16 13:23:39;;;;;;;0.40;0.30;;;;;;;;;;5017421;28;20689;-68
2023/01/16 13:26:07;;;;;;;1.10;0.70;;;;;;;;;;5017057;28;20029;-69
2023/01/16 13:28:55;;;;;;;1.25;0.30;;;;;;;;;;5017506;28;20032;-68
2023/01/16 13:31:32;;;;;;;0.43;0.35;;;;;;;;;;5017544;28;20490;-68
2023/01/16 13:34:04;;;;;;;1.42;0.50;;;;;;;;;;5014669;28;20116;-69
2023/01/16 13:36:45;;;;;;;0.32;0.32;;;;;;;;;;5013547;28;20028;-70
2023/01/16 13:39:13;;;;;;;1.75;0.60;;;;;;;;;;5011646;28;20014;-69
2023/01/16 13:41:43;;;;;;;1.52;0.63;;;;;;;;;;5013790;28;20546;-69
2023/01/16 13:47:03;;;;;;;1.00;0.63;;;;;;;;;;5011384;28;20560;-69
2023/01/16 13:49:28;;;;;;;0.40;0.30;;;;;;;;;;5013319;28;20021;-68
2023/01/16 13:51:53;;;;;;;3.17;0.57;;;;;;;;;;5025237;28;20433;-69
2023/01/16 13:54:23;;;;;;;0.30;0.30;;;;;;;;;;5029406;28;20549;-68
2023/01/16 13:56:55;;;;;;;0.85;0.50;;;;;;;;;;5024811;28;20068;-68
2023/01/16 13:59:41;;;;;;;1.40;0.65;;;;;;;;;;5027551;28;20100;-69
2023/01/16 14:02:24;;;;;;;1.08;0.65;;;;;;;;;;5025790;28;20032;-68
2023/01/16 14:05:04;;;;;;;1.40;0.50;;;;;;;;;;5028097;28;20025;-69
2023/01/16 14:10:50;;;;;;;1.42;0.45;;;;;;;;;;5025508;28;20088;-68
2023/01/16 14:13:20;;;;;;;1.15;0.60;;;;;;;;;;5026655;28;20417;-68
2023/01/16 14:18:40;;;;;;;1.38;0.50;;;;;;;;;;5026546;28;20044;-68
2023/01/16 14:21:14;;;;;;;2.95;1.00;;;;;;;;;;5022568;28;20378;-68
2023/01/16 14:26:44;;;;;;;1.83;0.30;;;;;;;;;;5022681;28;20041;-68
2023/01/16 14:29:23;;;;;;;4.85;1.55;;;;;;;;;;5023496;28;20093;-69
2023/01/16 14:31:54;;;;;;;3.35;0.77;;;;;;;;;;5025913;28;20040;-68
2023/01/16 14:34:26;;;;;;;2.08;0.80;;;;;;;;;;5028376;28;20381;-69
2023/01/16 14:36:53;;;;;;;3.00;0.80;;;;;;;;;;5027942;28;20030;-68
2023/01/16 14:39:34;;;;;;;0.40;0.30;;;;;;;;;;5029855;28;20343;-68
2023/01/16 14:55:13;;;;;;;2.00;0.55;;;;;;;;;;5028816;28;20397;-68
2023/01/16 14:56:38;;;;;;;0.93;0.38;;;;;;;;;;5027700;28;21615;-68
2023/01/16 14:59:21;;;;;;;1.05;0.20;;;;;;;;;;5026194;28;20022;-68
2023/01/16 15:04:56;;;;;;;2.58;0.50;;;;;;;;;;5022146;28;20052;-68
2023/01/16 15:07:30;;;;;;;0.57;0.40;;;;;;;;;;5012913;28;20033;-68
2023/01/16 15:09:59;;;;;;;0.65;0.30;;;;;;;;;;5027293;28;20017;-68
2023/01/16 15:12:34;;;;;;;1.20;0.47;;;;;;;;;;5025860;28;20059;-69
2023/01/16 15:14:59;;;;;;;0.90;0.30;;;;;;;;;;5021947;28;20101;-68
2023/01/16 15:22:56;;;;;;;0.77;0.40;;;;;;;;;;5029288;28;20036;-69
2023/01/16 15:25:28;;;;;;;5.38;1.00;;;;;;;;;;5026924;28;20029;-68
2023/01/16 15:28:06;;;;;;;1.10;0.20;;;;;;;;;;5027363;28;20018;-69
2023/01/16 15:30:31;;;;;;;1.70;0.80;;;;;;;;;;5024124;28;20032;-68
2023/01/16 15:35:43;;;;;;;7.55;0.50;;;;;;;;;;5027328;28;20171;-68
2023/01/16 15:38:08;;;;;;;0.52;0.40;;;;;;;;;;5022251;28;20097;-68
2023/01/16 15:40:34;;;;;;;1.50;0.68;;;;;;;;;;5023338;28;20194;-69
2023/01/16 15:46:32;;;;;;;0.47;0.45;;;;;;;;;;5025323;28;20072;-68
2023/01/16 15:49:13;;;;;;;1.85;0.60;;;;;;;;;;5024663;28;20025;-68
2023/01/16 15:51:38;;;;;;;2.20;0.68;;;;;;;;;;5028643;28;20119;-68
2023/01/16 15:54:03;;;;;;;4.25;0.77;;;;;;;;;;5025056;28;20518;-68
2023/01/16 15:56:39;;;;;;;0.35;0.30;;;;;;;;;;5027370;28;20109;-68
2023/01/16 15:59:18;;;;;;;1.48;0.60;;;;;;;;;;5026140;28;20017;-68
2023/01/16 16:01:43;;;;;;;2.38;0.80;;;;;;;;;;5023386;28;20112;-68
2023/01/16 16:04:09;;;;;;;1.20;0.40;;;;;;;;;;5017691;28;20534;-68
2023/01/16 16:06:38;;;;;;;7.80;1.00;;;;;;;;;;5020322;28;20276;-68
2023/01/16 16:09:04;;;;;;;0.57;0.43;;;;;;;;;;5023525;28;20434;-68
2023/01/16 16:20:24;;;;;;;1.02;0.50;;;;;;;;;;5024974;28;20023;-67
2023/01/16 16:22:50;;;;;;;0.73;0.65;;;;;;;;;;5026223;28;20063;-68
2023/01/16 16:25:23;;;;;;;2.95;0.75;;;;;;;;;;5026921;28;20473;-67
2023/01/16 16:27:48;;;;;;;0.93;0.47;;;;;;;;;;5023480;28;20022;-68
2023/01/16 16:30:21;;;;;;;1.25;0.50;;;;;;;;;;5028019;28;20033;-68
2023/01/16 16:32:46;;;;;;;0.43;0.30;;;;;;;;;;5026032;28;20029;-68
2023/01/16 16:35:16;;;;;;;1.33;0.85;;;;;;;;;;5020901;28;20440;-68